createdAt,value
2022-08-31T00:00:09.425Z,3.35
2022-08-31T00:02:54.994Z,3.60
2022-08-31T00:05:22.987Z,3.22
2022-08-31T00:07:50.805Z,3.45
2022-08-31T00:10:31.719Z,3.40
2022-08-31T00:13:01.491Z,3.53
2022-08-31T00:15:31.129Z,3.20
2022-08-31T00:17:59.156Z,3.08
2022-08-31T00:20:33.989Z,3.30
2022-08-31T00:23:02.707Z,3.05
2022-08-31T00:25:33.845Z,3.30
2022-08-31T00:28:01.733Z,3.20
2022-08-31T00:30:29.590Z,3.05
2022-08-31T00:32:58.298Z,3.20
2022-08-31T00:35:26.416Z,3.50
2022-08-31T00:37:54.320Z,3.03
2022-08-31T00:40:22.507Z,3.15
2022-08-31T00:42:52.110Z,3.20
2022-08-31T00:45:20.643Z,3.20
2022-08-31T00:47:48.596Z,3.40
2022-08-31T00:50:17.647Z,3.15
2022-08-31T00:52:48.077Z,3.17
2022-08-31T00:55:18.447Z,3.40
2022-08-31T00:57:49.010Z,3.30
2022-08-31T01:00:21.457Z,3.30
2022-08-31T01:02:49.725Z,3.40
2022-08-31T01:05:19.295Z,3.10
2022-08-31T01:07:50.674Z,3.40
2022-08-31T01:10:21.105Z,3.40
2022-08-31T01:12:50.514Z,3.15
2022-08-31T01:15:19.730Z,3.35
2022-08-31T01:17:49.553Z,3.30
2022-08-31T01:20:23.714Z,3.28
2022-08-31T01:23:03.458Z,3.33
2022-08-31T01:25:33.572Z,3.35
2022-08-31T01:28:03.237Z,3.08
2022-08-31T01:30:31.247Z,3.30
2022-08-31T01:32:59.060Z,3.25
2022-08-31T01:35:27.062Z,3.22
2022-08-31T01:37:55.315Z,3.40
2022-08-31T01:40:26.770Z,3.20
2022-08-31T01:42:54.509Z,3.20
2022-08-31T01:45:22.630Z,3.20
2022-08-31T01:47:50.380Z,3.20
2022-08-31T01:50:18.207Z,3.30
2022-08-31T01:52:45.934Z,3.10
2022-08-31T01:55:13.889Z,3.05
2022-08-31T01:57:42.985Z,3.28
2022-08-31T02:00:11.890Z,3.17
2022-08-31T02:02:39.780Z,3.30
2022-08-31T02:05:10.128Z,3.30
2022-08-31T02:07:37.836Z,3.25
2022-08-31T02:10:06.986Z,3.50
2022-08-31T02:12:34.777Z,3.10
2022-08-31T02:15:04.285Z,3.33
2022-08-31T02:17:32.123Z,3.50
2022-08-31T02:19:59.937Z,3.50
2022-08-31T02:22:27.928Z,3.22
2022-08-31T02:24:55.989Z,3.20
2022-08-31T02:27:55.339Z,3.33
2022-08-31T02:30:24.697Z,3.60
2022-08-31T02:32:52.836Z,3.47
2022-08-31T02:35:20.604Z,3.40
2022-08-31T02:37:48.504Z,3.50
2022-08-31T02:40:17.115Z,3.40
2022-08-31T02:42:53.200Z,3.50
2022-08-31T02:45:21.899Z,3.60
2022-08-31T02:47:51.188Z,3.20
2022-08-31T02:50:19.231Z,3.33
2022-08-31T02:52:47.491Z,3.60
2022-08-31T02:55:15.645Z,3.30
2022-08-31T02:57:43.379Z,3.30
2022-08-31T03:00:12.748Z,3.30
2022-08-31T03:02:41.538Z,3.20
2022-08-31T03:05:11.950Z,3.40
2022-08-31T03:07:40.091Z,3.40
2022-08-31T03:10:11.440Z,3.13
2022-08-31T03:12:39.647Z,3.40
2022-08-31T03:15:09.241Z,3.20
2022-08-31T03:17:37.043Z,3.60
2022-08-31T03:20:06.633Z,3.50
2022-08-31T03:22:35.958Z,3.60
2022-08-31T03:25:05.862Z,3.10
2022-08-31T03:27:34.039Z,3.50
2022-08-31T03:30:01.984Z,3.15
2022-08-31T03:32:31.163Z,3.50
2022-08-31T03:35:01.119Z,3.40
2022-08-31T03:37:29.455Z,3.40
2022-08-31T03:39:58.808Z,3.50
2022-08-31T03:42:27.636Z,3.28
2022-08-31T03:44:56.304Z,3.50
2022-08-31T03:47:24.152Z,3.30
2022-08-31T03:49:56.247Z,3.50
2022-08-31T03:52:23.966Z,3.30
2022-08-31T03:54:51.881Z,3.20
2022-08-31T03:57:21.053Z,3.13
2022-08-31T03:59:48.753Z,3.40
2022-08-31T04:02:16.514Z,3.30
2022-08-31T04:04:44.287Z,3.25
2022-08-31T04:07:12.036Z,3.10
2022-08-31T04:09:40.014Z,3.30
2022-08-31T04:12:07.894Z,3.30
2022-08-31T04:14:36.959Z,3.50
2022-08-31T04:17:04.736Z,3.35
2022-08-31T04:19:32.575Z,3.22
2022-08-31T04:22:00.275Z,3.45
2022-08-31T04:24:29.374Z,3.33
2022-08-31T04:26:57.141Z,3.17
2022-08-31T04:29:24.956Z,3.30
2022-08-31T04:31:54.234Z,3.20
2022-08-31T04:34:22.032Z,3.30
2022-08-31T04:36:49.937Z,3.08
2022-08-31T04:39:18.265Z,3.30
2022-08-31T04:41:47.198Z,3.28
2022-08-31T04:44:19.773Z,3.30
2022-08-31T04:46:48.160Z,3.30
2022-08-31T04:49:17.321Z,3.40
2022-08-31T04:51:46.174Z,3.28
2022-08-31T04:54:14.912Z,3.20
2022-08-31T04:56:45.003Z,3.30
2022-08-31T04:59:14.431Z,3.15
2022-08-31T05:01:44.690Z,3.20
2022-08-31T05:04:14.610Z,3.00
2022-08-31T05:06:45.342Z,3.30
2022-08-31T05:09:15.143Z,3.40
2022-08-31T05:11:43.682Z,3.30
2022-08-31T05:14:11.853Z,3.20
2022-08-31T05:16:40.364Z,3.10
2022-08-31T05:19:08.134Z,3.22
2022-08-31T05:21:37.211Z,3.30
2022-08-31T05:24:09.060Z,3.10
2022-08-31T05:29:10.702Z,3.20
2022-08-31T05:31:38.876Z,3.30
2022-08-31T05:34:07.415Z,3.30
2022-08-31T05:36:35.490Z,3.40
2022-08-31T05:39:03.284Z,3.10
2022-08-31T05:41:32.472Z,3.28
2022-08-31T05:44:00.247Z,3.30
2022-08-31T05:46:29.007Z,3.10
2022-08-31T05:48:57.632Z,3.20
2022-08-31T05:51:25.613Z,3.20
2022-08-31T05:53:53.325Z,3.20
2022-08-31T05:56:23.418Z,3.10
2022-08-31T05:58:53.332Z,3.10
2022-08-31T06:01:23.517Z,3.30
2022-08-31T06:03:51.480Z,3.20
2022-08-31T06:06:19.471Z,3.10
2022-08-31T06:08:47.487Z,3.40
2022-08-31T06:11:19.348Z,3.30
2022-08-31T06:13:47.766Z,2.92
2022-08-31T06:16:17.559Z,3.20
2022-08-31T06:18:50.747Z,3.20
2022-08-31T06:21:20.994Z,3.30
2022-08-31T06:23:50.472Z,3.20
2022-08-31T06:26:20.541Z,3.33
2022-08-31T06:28:49.946Z,3.30
2022-08-31T06:31:24.055Z,3.00
2022-08-31T06:33:53.089Z,3.33
2022-08-31T06:36:22.552Z,3.40
2022-08-31T06:38:50.416Z,3.30
2022-08-31T06:41:21.184Z,3.40
2022-08-31T06:43:49.635Z,3.40
2022-08-31T06:46:19.995Z,3.50
2022-08-31T06:48:48.364Z,3.50
2022-08-31T06:51:16.089Z,3.40
2022-08-31T06:53:44.399Z,3.50
2022-08-31T06:56:20.420Z,3.50
2022-08-31T06:58:54.058Z,3.50
2022-08-31T07:01:35.511Z,3.55
2022-08-31T07:04:05.996Z,3.50
2022-08-31T07:06:38.073Z,3.50
2022-08-31T07:09:08.466Z,3.60
2022-08-31T07:11:43.552Z,3.65
2022-08-31T07:14:14.066Z,3.40
2022-08-31T07:16:44.066Z,3.40
2022-08-31T07:19:13.746Z,3.40
2022-08-31T07:21:44.127Z,3.45
2022-08-31T07:24:13.935Z,3.47
2022-08-31T07:26:44.494Z,3.30
2022-08-31T07:29:15.160Z,3.47
2022-08-31T07:31:46.676Z,3.70
2022-08-31T07:34:15.614Z,3.60
2022-08-31T07:37:01.576Z,3.60
2022-08-31T07:39:47.575Z,3.70
2022-08-31T07:42:17.283Z,3.70
2022-08-31T07:44:53.466Z,3.42
2022-08-31T07:47:23.156Z,3.70
2022-08-31T07:49:53.006Z,3.70
2022-08-31T07:52:23.812Z,3.80
2022-08-31T07:54:52.577Z,3.50
2022-08-31T07:57:22.007Z,3.50
2022-08-31T07:59:55.483Z,3.70
2022-08-31T08:02:24.742Z,3.80
2022-08-31T08:04:53.887Z,3.40
2022-08-31T08:07:21.783Z,3.40
2022-08-31T08:09:49.901Z,3.60
2022-08-31T08:12:20.309Z,3.72
2022-08-31T08:14:50.415Z,3.45
2022-08-31T08:17:18.462Z,3.60
2022-08-31T08:19:47.649Z,3.70
2022-08-31T08:22:30.640Z,3.70
2022-08-31T08:25:16.691Z,3.60
2022-08-31T08:27:44.704Z,3.70
2022-08-31T08:30:15.985Z,3.53
2022-08-31T08:32:44.268Z,3.70
2022-08-31T08:35:13.894Z,3.50
2022-08-31T08:37:57.836Z,3.50
2022-08-31T08:40:31.821Z,3.40
2022-08-31T08:43:02.327Z,3.58
2022-08-31T08:45:30.222Z,3.70
2022-08-31T08:47:58.565Z,3.63
2022-08-31T08:50:29.197Z,3.75
2022-08-31T08:52:58.627Z,3.80
2022-08-31T08:55:31.118Z,3.65
2022-08-31T08:57:59.496Z,3.80
2022-08-31T09:00:30.123Z,3.60
2022-08-31T09:03:01.207Z,3.50
2022-08-31T09:05:42.207Z,3.72
2022-08-31T09:08:23.464Z,3.77
2022-08-31T09:11:06.329Z,3.88
2022-08-31T09:13:39.955Z,3.97
2022-08-31T09:16:17.661Z,4.00
2022-08-31T09:18:48.807Z,3.88
2022-08-31T09:21:21.886Z,3.70
2022-08-31T09:23:56.051Z,3.70
2022-08-31T09:26:27.948Z,4.00
2022-08-31T09:28:56.050Z,4.10
2022-08-31T09:31:37.369Z,3.80
2022-08-31T09:34:08.555Z,3.70
2022-08-31T09:36:41.087Z,3.60
2022-08-31T09:39:19.117Z,3.92
2022-08-31T09:41:48.141Z,4.03
2022-08-31T09:44:25.514Z,3.92
2022-08-31T09:46:56.569Z,3.95
2022-08-31T09:49:28.233Z,3.80
2022-08-31T09:54:47.259Z,3.67
2022-08-31T09:57:15.509Z,3.70
2022-08-31T09:59:44.726Z,3.95
2022-08-31T10:02:28.591Z,4.00
2022-08-31T10:04:58.308Z,4.10
2022-08-31T10:07:38.695Z,4.30
2022-08-31T10:10:16.013Z,4.20
2022-08-31T10:13:01.600Z,4.15
2022-08-31T10:15:33.567Z,4.10
2022-08-31T10:18:11.785Z,4.10
2022-08-31T10:20:46.396Z,4.03
2022-08-31T10:23:20.785Z,4.00
2022-08-31T10:25:52.835Z,3.90
2022-08-31T10:28:31.686Z,3.67
2022-08-31T10:31:05.140Z,3.90
2022-08-31T10:33:51.713Z,4.00
2022-08-31T10:36:20.160Z,4.00
2022-08-31T10:38:50.954Z,3.70
2022-08-31T10:41:22.432Z,3.60
2022-08-31T10:46:21.659Z,4.30
2022-08-31T10:48:54.491Z,4.10
2022-08-31T10:51:26.915Z,4.38
2022-08-31T10:54:04.269Z,3.97
2022-08-31T10:56:41.401Z,3.80
2022-08-31T10:59:18.706Z,4.00
2022-08-31T11:01:53.856Z,4.10
2022-08-31T11:04:36.058Z,4.10
2022-08-31T11:07:13.256Z,3.90
2022-08-31T11:09:48.692Z,4.00
2022-08-31T11:12:21.541Z,4.20
2022-08-31T11:15:20.975Z,4.00
2022-08-31T11:18:03.175Z,4.18
2022-08-31T11:20:52.198Z,4.20
2022-08-31T11:23:47.864Z,3.80
2022-08-31T11:26:50.965Z,4.20
2022-08-31T11:29:31.635Z,4.13
2022-08-31T11:32:08.610Z,4.00
2022-08-31T11:34:47.496Z,4.15
2022-08-31T11:37:53.275Z,4.40
2022-08-31T11:41:11.710Z,4.32
2022-08-31T11:43:45.495Z,4.20
2022-08-31T11:46:53.102Z,4.10
2022-08-31T11:49:44.957Z,4.10
2022-08-31T11:52:29.944Z,3.88
2022-08-31T11:55:04.259Z,4.20
2022-08-31T11:57:37.031Z,4.20
2022-08-31T12:00:19.443Z,4.18
2022-08-31T12:05:43.353Z,3.90
2022-08-31T12:08:15.275Z,3.78
2022-08-31T12:10:54.812Z,3.85
2022-08-31T12:13:39.778Z,3.78
2022-08-31T12:16:42.771Z,3.90
2022-08-31T12:19:51.214Z,3.88
2022-08-31T12:22:57.368Z,4.00
2022-08-31T12:25:28.661Z,3.92
2022-08-31T12:28:08.136Z,4.30
2022-08-31T12:30:35.931Z,4.10
2022-08-31T12:33:05.953Z,4.10
2022-08-31T12:35:34.744Z,4.30
2022-08-31T12:38:04.794Z,4.38
2022-08-31T12:40:34.240Z,4.10
2022-08-31T12:43:11.443Z,4.40
2022-08-31T12:46:06.985Z,4.03
2022-08-31T12:48:48.975Z,3.97
2022-08-31T12:51:23.610Z,4.05
2022-08-31T12:54:14.766Z,4.03
2022-08-31T12:56:49.485Z,4.50
2022-08-31T12:59:45.659Z,4.28
2022-08-31T13:02:16.478Z,4.00
2022-08-31T13:04:45.435Z,3.95
2022-08-31T13:07:14.853Z,4.13
2022-08-31T13:09:42.641Z,4.05
2022-08-31T13:12:10.769Z,4.05
2022-08-31T13:14:44.484Z,3.90
2022-08-31T13:17:15.050Z,3.72
2022-08-31T13:19:48.898Z,3.70
2022-08-31T13:22:27.516Z,3.88
2022-08-31T13:24:55.556Z,4.00
2022-08-31T13:27:25.736Z,3.78
2022-08-31T13:29:56.947Z,4.00
2022-08-31T13:32:34.012Z,3.92
2022-08-31T13:35:04.323Z,4.20
2022-08-31T13:37:35.363Z,4.00
2022-08-31T13:40:10.482Z,4.05
2022-08-31T13:42:41.439Z,3.95
2022-08-31T13:45:26.180Z,4.18
2022-08-31T13:47:57.785Z,4.00
2022-08-31T13:50:32.941Z,4.30
2022-08-31T13:53:26.313Z,4.20
2022-08-31T13:55:50.794Z,4.18
2022-08-31T13:58:27.854Z,4.45
2022-08-31T14:01:21.062Z,4.40
2022-08-31T14:03:57.312Z,4.20
2022-08-31T14:06:27.405Z,4.35
2022-08-31T14:09:00.260Z,4.40
2022-08-31T14:11:29.061Z,4.13
2022-08-31T14:14:05.887Z,4.25
2022-08-31T14:16:37.281Z,4.10
2022-08-31T14:21:35.081Z,3.83
2022-08-31T14:24:03.905Z,3.72
2022-08-31T14:26:33.693Z,4.00
2022-08-31T14:29:03.702Z,3.80
2022-08-31T14:31:37.331Z,3.67
2022-08-31T14:34:22.417Z,3.70
2022-08-31T14:37:06.230Z,3.67
2022-08-31T14:39:36.182Z,3.70
2022-08-31T14:42:07.508Z,3.85
2022-08-31T14:44:38.101Z,3.80
2022-08-31T14:47:08.277Z,3.92
2022-08-31T14:49:36.936Z,3.90
2022-08-31T14:52:06.437Z,3.90
2022-08-31T14:54:37.196Z,3.75
2022-08-31T14:57:08.611Z,4.05
2022-08-31T14:59:39.675Z,3.70
2022-08-31T15:02:10.295Z,3.90
2022-08-31T15:04:42.821Z,3.50
2022-08-31T15:07:14.644Z,3.90
2022-08-31T15:09:47.696Z,3.95
2022-08-31T15:12:19.453Z,3.75
2022-08-31T15:14:47.394Z,3.80
2022-08-31T15:17:19.663Z,3.33
2022-08-31T15:19:50.223Z,3.40
2022-08-31T15:22:18.902Z,3.60
2022-08-31T15:24:46.668Z,3.78
2022-08-31T15:27:15.541Z,3.65
2022-08-31T15:29:45.452Z,3.70
2022-08-31T15:32:17.363Z,3.80
2022-08-31T15:34:53.286Z,3.33
2022-08-31T15:37:21.450Z,3.78
2022-08-31T15:39:50.672Z,3.80
2022-08-31T15:42:20.812Z,3.90
2022-08-31T15:44:55.613Z,3.80
2022-08-31T15:47:41.798Z,3.90
2022-08-31T15:50:15.980Z,3.80
2022-08-31T15:52:51.365Z,3.90
2022-08-31T15:55:28.167Z,3.70
2022-08-31T15:57:58.382Z,3.90
2022-08-31T16:00:29.902Z,4.15
2022-08-31T16:05:31.442Z,4.20
2022-08-31T16:08:00.519Z,3.80
2022-08-31T16:10:31.836Z,3.70
2022-08-31T16:13:06.204Z,3.90
2022-08-31T16:15:34.529Z,3.90
2022-08-31T16:18:02.863Z,3.80
2022-08-31T16:20:32.033Z,3.88
2022-08-31T16:23:00.645Z,3.40
2022-08-31T16:25:41.813Z,3.72
2022-08-31T16:28:16.610Z,3.80
2022-08-31T16:30:45.163Z,3.90
2022-08-31T16:33:12.875Z,3.85
2022-08-31T16:35:44.435Z,3.70
2022-08-31T16:40:41.592Z,3.70
2022-08-31T16:43:09.612Z,3.75
2022-08-31T16:45:39.375Z,3.80
2022-08-31T16:48:24.644Z,3.60
2022-08-31T16:50:53.703Z,4.05
2022-08-31T16:53:23.630Z,4.00
2022-08-31T16:55:53.184Z,3.78
2022-08-31T16:58:47.766Z,3.95
2022-08-31T17:01:14.211Z,3.80
2022-08-31T17:03:43.845Z,3.95
2022-08-31T17:06:13.655Z,4.00
2022-08-31T17:08:44.070Z,4.03
2022-08-31T17:11:17.776Z,4.00
2022-08-31T17:13:47.488Z,4.00
2022-08-31T17:16:21.334Z,4.05
2022-08-31T17:18:51.093Z,4.10
2022-08-31T17:21:21.846Z,4.15
2022-08-31T17:26:22.380Z,4.40
2022-08-31T17:28:52.988Z,4.05
2022-08-31T17:31:20.878Z,3.90
2022-08-31T17:33:48.715Z,4.07
2022-08-31T17:36:19.983Z,4.18
2022-08-31T17:38:50.626Z,4.28
2022-08-31T17:41:18.328Z,4.38
2022-08-31T17:43:46.043Z,4.10
2022-08-31T17:46:16.155Z,4.07
2022-08-31T17:48:45.166Z,3.92
2022-08-31T17:51:27.904Z,4.25
2022-08-31T17:53:58.408Z,4.50
2022-08-31T17:56:28.570Z,4.05
2022-08-31T17:58:56.290Z,4.45
2022-08-31T18:01:30.380Z,4.65
2022-08-31T18:03:59.845Z,4.55
2022-08-31T18:06:28.619Z,4.50
2022-08-31T18:08:58.976Z,4.72
2022-08-31T18:11:29.241Z,4.65
2022-08-31T18:13:57.274Z,4.80
2022-08-31T18:16:25.046Z,4.68
2022-08-31T18:18:52.913Z,4.60
2022-08-31T18:21:22.840Z,4.65
2022-08-31T18:23:51.139Z,4.68
2022-08-31T18:26:22.788Z,4.68
2022-08-31T18:28:52.873Z,4.68
2022-08-31T18:31:30.172Z,4.30
2022-08-31T18:33:58.144Z,4.30
2022-08-31T18:36:26.905Z,4.00
2022-08-31T18:38:56.199Z,4.10
2022-08-31T18:41:44.398Z,4.30
2022-08-31T18:44:30.764Z,4.20
2022-08-31T18:46:58.837Z,3.38
2022-08-31T18:49:28.120Z,3.38
2022-08-31T18:51:57.063Z,3.40
2022-08-31T18:54:25.567Z,3.58
2022-08-31T18:56:54.699Z,3.50
2022-08-31T18:59:22.635Z,3.80
2022-08-31T19:01:51.499Z,3.60
2022-08-31T19:04:21.897Z,3.63
2022-08-31T19:06:50.664Z,3.50
2022-08-31T19:09:19.248Z,3.67
2022-08-31T19:11:51.410Z,3.70
2022-08-31T19:14:27.887Z,3.53
2022-08-31T19:17:03.929Z,3.70
2022-08-31T19:19:33.253Z,3.50
2022-08-31T19:22:00.967Z,3.50
2022-08-31T19:24:28.877Z,3.60
2022-08-31T19:26:58.961Z,3.30
2022-08-31T19:29:31.490Z,3.83
2022-08-31T19:32:02.056Z,3.90
2022-08-31T19:34:31.738Z,3.90
2022-08-31T19:37:00.879Z,3.70
2022-08-31T19:39:30.521Z,3.58
2022-08-31T19:42:03.318Z,3.63
2022-08-31T19:47:25.125Z,3.60
2022-08-31T19:49:53.238Z,3.80
2022-08-31T19:52:21.098Z,3.60
2022-08-31T19:54:50.480Z,3.67
2022-08-31T19:57:20.011Z,3.58
2022-08-31T19:59:49.932Z,3.83
2022-08-31T20:02:18.499Z,3.25
2022-08-31T20:04:46.288Z,3.60
2022-08-31T20:07:14.366Z,3.65
2022-08-31T20:09:42.074Z,3.80
2022-08-31T20:12:12.095Z,3.50
2022-08-31T20:14:39.821Z,3.53
2022-08-31T20:17:09.807Z,3.60
2022-08-31T20:19:39.495Z,3.50
2022-08-31T20:22:07.963Z,3.40
2022-08-31T20:24:38.130Z,3.25
2022-08-31T20:27:10.967Z,3.30
2022-08-31T20:29:39.345Z,3.50
2022-08-31T20:32:09.407Z,3.58
2022-08-31T20:34:38.240Z,3.35
2022-08-31T20:37:06.161Z,3.50
2022-08-31T20:39:35.351Z,3.70
2022-08-31T20:42:03.574Z,3.50
2022-08-31T20:44:33.754Z,3.35
2022-08-31T20:47:20.562Z,3.45
2022-08-31T20:49:53.698Z,3.40
2022-08-31T20:52:23.112Z,3.20
2022-08-31T20:54:52.355Z,3.60
2022-08-31T20:57:30.182Z,3.40
2022-08-31T20:59:58.318Z,3.40
2022-08-31T21:02:26.436Z,3.50
2022-08-31T21:04:56.933Z,3.30
2022-08-31T21:07:25.079Z,3.20
2022-08-31T21:09:52.868Z,3.50
2022-08-31T21:12:20.961Z,3.28
2022-08-31T21:14:49.295Z,3.70
2022-08-31T21:17:17.653Z,3.65
2022-08-31T21:19:45.735Z,3.70
2022-08-31T21:22:46.728Z,3.40
2022-08-31T21:25:16.305Z,3.40
2022-08-31T21:27:46.827Z,3.67
2022-08-31T21:30:15.329Z,3.70
2022-08-31T21:32:43.110Z,3.40
2022-08-31T21:35:11.999Z,3.60
2022-08-31T21:37:42.174Z,3.55
2022-08-31T21:40:11.788Z,3.47
2022-08-31T21:42:39.540Z,3.30
2022-08-31T21:45:09.499Z,3.70
2022-08-31T21:47:37.263Z,3.50
2022-08-31T21:50:05.383Z,3.80
2022-08-31T21:52:33.420Z,3.33
2022-08-31T21:55:05.723Z,3.88
2022-08-31T21:57:33.542Z,4.00
2022-08-31T22:00:01.835Z,3.92
2022-08-31T22:02:29.833Z,3.80
2022-08-31T22:04:59.543Z,3.70
2022-08-31T22:07:27.319Z,3.53
2022-08-31T22:09:56.666Z,3.85
2022-08-31T22:12:29.183Z,3.45
2022-08-31T22:14:57.372Z,4.00
2022-08-31T22:17:37.156Z,3.70
2022-08-31T22:20:14.526Z,3.40
2022-08-31T22:22:42.317Z,3.50
2022-08-31T22:25:10.865Z,3.50
2022-08-31T22:27:39.960Z,3.40
2022-08-31T22:30:09.119Z,3.40
2022-08-31T22:32:37.454Z,3.40
2022-08-31T22:35:06.349Z,3.67
2022-08-31T22:37:35.268Z,3.47
2022-08-31T22:40:03.156Z,3.15
2022-08-31T22:42:30.931Z,3.45
2022-08-31T22:45:00.403Z,3.75
2022-08-31T22:47:28.126Z,3.28
2022-08-31T22:49:55.931Z,3.70
2022-08-31T22:52:23.682Z,3.50
2022-08-31T22:54:51.491Z,3.67
2022-08-31T22:57:19.465Z,3.30
2022-08-31T22:59:49.240Z,3.40
2022-08-31T23:02:18.527Z,3.60
2022-08-31T23:04:46.594Z,3.30
2022-08-31T23:07:16.436Z,3.40
2022-08-31T23:09:45.059Z,3.60
2022-08-31T23:12:12.849Z,3.40
2022-08-31T23:14:41.996Z,3.28
2022-08-31T23:17:10.582Z,3.10
2022-08-31T23:19:41.492Z,3.58
2022-08-31T23:22:12.603Z,3.60
2022-08-31T23:24:44.854Z,3.70
2022-08-31T23:27:13.474Z,3.47
2022-08-31T23:29:45.645Z,3.13
2022-08-31T23:32:13.746Z,3.30
2022-08-31T23:34:42.823Z,3.50
2022-08-31T23:37:12.158Z,3.63
2022-08-31T23:39:43.479Z,3.60
2022-08-31T23:42:13.201Z,3.10
2022-08-31T23:44:43.740Z,3.60
2022-08-31T23:47:13.932Z,3.60
2022-08-31T23:49:44.156Z,3.65
2022-08-31T23:52:18.900Z,3.58
2022-08-31T23:54:50.076Z,3.20
2022-08-31T23:57:31.496Z,3.45
